Time;durP1;ratioP1;P1;durP2;ratioP2;P2;SDS_P1;SDS_P2;PMS_P1;PMS_P2;Temp;Humidity;BMP_temperature;BMP_pressure;BME280_temperature;BME280_humidity;BME280_pressure;Samples;Min_cycle;Max_cycle;Signal;HPM_P1;HPM_P2
2023/06/03 00:00:20;;;;;;;8.20;4.32;;;;;;;;;;4436847;32;20131;-68
2023/06/03 00:02:47;;;;;;;8.82;4.62;;;;;;;;;;4436280;32;20049;-68
2023/06/03 00:05:12;;;;;;;9.77;4.40;;;;;;;;;;4421071;32;20049;-70
2023/06/03 00:07:37;;;;;;;7.95;4.50;;;;;;;;;;4422643;32;20063;-68
2023/06/03 00:10:03;;;;;;;12.18;4.22;;;;;;;;;;4437205;32;20037;-67
2023/06/03 00:12:28;;;;;;;;;;;;;;;;;;4451349;32;20152;-69
2023/06/03 00:14:53;;;;;;;9.77;4.10;;;;;;;;;;4436121;32;19944;-67
2023/06/03 00:17:21;;;;;;;8.93;4.13;;;;;;;;;;4451319;32;20064;-68
2023/06/03 00:19:47;;;;;;;8.45;4.70;;;;;;;;;;4437988;32;20456;-69
2023/06/03 00:22:12;;;;;;;7.93;5.30;;;;;;;;;;4450910;32;20042;-67
2023/06/03 00:24:37;;;;;;;;;;;;;;;;;;4451885;32;20030;-68
2023/06/03 00:27:03;;;;;;;10.32;4.68;;;;;;;;;;4452816;32;19940;-69
2023/06/03 00:29:28;;;;;;;;;;;;;;;;;;4451858;32;20572;-69
2023/06/03 00:31:53;;;;;;;15.82;5.12;;;;;;;;;;4452866;32;19933;-67
2023/06/03 00:34:18;;;;;;;7.97;4.90;;;;;;;;;;4436160;32;20077;-68
2023/06/03 00:36:43;;;;;;;7.87;3.80;;;;;;;;;;4452104;32;20037;-69
2023/06/03 00:39:09;;;;;;;8.40;4.93;;;;;;;;;;4450499;32;20029;-68
2023/06/03 00:41:35;;;;;;;12.23;4.85;;;;;;;;;;4452576;32;20084;-68
2023/06/03 00:44:00;;;;;;;7.90;4.25;;;;;;;;;;4452408;32;20460;-68
2023/06/03 00:46:26;;;;;;;9.30;4.60;;;;;;;;;;4437442;32;20391;-68
2023/06/03 00:48:51;;;;;;;;;;;;;;;;;;4437165;32;20033;-68
2023/06/03 00:51:17;;;;;;;9.93;4.50;;;;;;;;;;4452046;32;20250;-68
2023/06/03 00:53:42;;;;;;;;;;;;;;;;;;4450818;32;20136;-68
2023/06/03 00:56:07;;;;;;;9.43;4.55;;;;;;;;;;4452426;32;19933;-68
2023/06/03 00:58:32;;;;;;;;;;;;;;;;;;4451639;32;20517;-69
2023/06/03 01:00:58;;;;;;;9.73;4.03;;;;;;;;;;4451397;32;20248;-69
2023/06/03 01:03:23;;;;;;;6.93;4.68;;;;;;;;;;4450360;32;20097;-69
2023/06/03 01:06:01;;;;;;;8.85;4.18;;;;;;;;;;4450881;32;20430;-69
2023/06/03 01:08:32;;;;;;;9.27;4.10;;;;;;;;;;4450619;32;20017;-68
2023/06/03 01:11:16;;;;;;;8.18;4.18;;;;;;;;;;4451560;32;20106;-68
2023/06/03 01:13:47;;;;;;;10.98;5.28;;;;;;;;;;4450018;32;20090;-68
2023/06/03 01:16:14;;;;;;;7.57;4.53;;;;;;;;;;4452480;32;20063;-69
2023/06/03 01:18:40;;;;;;;9.20;4.85;;;;;;;;;;4451152;32;20033;-68
2023/06/03 01:21:07;;;;;;;7.80;4.35;;;;;;;;;;4450853;32;20334;-68
2023/06/03 01:23:35;;;;;;;8.55;5.22;;;;;;;;;;4443605;32;20050;-67
2023/06/03 01:26:01;;;;;;;10.25;4.97;;;;;;;;;;4435793;32;20068;-68
2023/06/03 01:28:27;;;;;;;8.05;4.68;;;;;;;;;;4439166;32;20038;-68
2023/06/03 01:30:53;;;;;;;8.77;5.05;;;;;;;;;;4438653;32;20026;-68
2023/06/03 01:33:20;;;;;;;7.70;4.87;;;;;;;;;;4439148;32;20130;-69
2023/06/03 01:35:46;;;;;;;7.57;4.62;;;;;;;;;;4437719;32;20029;-68
2023/06/03 01:38:11;;;;;;;10.77;4.68;;;;;;;;;;4439088;32;20052;-69
2023/06/03 01:40:37;;;;;;;8.93;4.10;;;;;;;;;;4439685;32;20030;-69
2023/06/03 01:43:02;;;;;;;7.55;4.53;;;;;;;;;;4439648;32;20502;-68
2023/06/03 01:45:28;;;;;;;8.55;4.97;;;;;;;;;;4439774;32;20167;-68
2023/06/03 01:47:53;;;;;;;13.57;4.80;;;;;;;;;;4438424;32;20029;-68
2023/06/03 01:50:21;;;;;;;8.43;4.90;;;;;;;;;;4423859;32;20095;-68
2023/06/03 01:52:46;;;;;;;8.38;4.55;;;;;;;;;;4438165;32;20149;-69
2023/06/03 01:55:12;;;;;;;12.52;5.30;;;;;;;;;;4437650;32;20410;-69
2023/06/03 01:57:37;;;;;;;11.40;5.00;;;;;;;;;;4438252;32;20185;-69
2023/06/03 02:00:06;;;;;;;;;;;;;;;;;;4424255;32;20037;-69
2023/06/03 02:02:31;;;;;;;8.23;4.40;;;;;;;;;;4437564;32;19936;-68
2023/06/03 02:04:56;;;;;;;7.27;4.50;;;;;;;;;;4424169;32;20079;-69
2023/06/03 02:07:21;;;;;;;9.93;5.43;;;;;;;;;;4438062;32;20484;-68
2023/06/03 02:09:46;;;;;;;9.43;5.20;;;;;;;;;;4425519;32;20195;-68
2023/06/03 02:12:11;;;;;;;8.35;5.05;;;;;;;;;;4437588;32;20564;-69
2023/06/03 02:14:37;;;;;;;9.63;4.80;;;;;;;;;;4438252;32;20038;-68
2023/06/03 02:17:03;;;;;;;7.50;5.10;;;;;;;;;;4437043;32;20121;-69
2023/06/03 02:19:28;;;;;;;16.83;4.70;;;;;;;;;;4438991;32;20148;-69
2023/06/03 02:21:56;;;;;;;7.68;5.07;;;;;;;;;;4437516;32;20365;-68
2023/06/03 02:24:22;;;;;;;12.60;5.22;;;;;;;;;;4438257;32;20037;-68
2023/06/03 02:26:50;;;;;;;7.53;4.68;;;;;;;;;;4438290;32;20121;-67
2023/06/03 02:29:18;;;;;;;9.98;4.85;;;;;;;;;;4438570;32;20072;-68
2023/06/03 02:31:44;;;;;;;6.18;4.80;;;;;;;;;;4439116;32;20411;-68
2023/06/03 02:34:10;;;;;;;11.60;5.37;;;;;;;;;;4410579;32;20064;-68
2023/06/03 02:36:35;;;;;;;9.93;5.40;;;;;;;;;;4437720;32;20048;-68
2023/06/03 02:39:00;;;;;;;8.35;4.57;;;;;;;;;;4437860;32;20078;-68
2023/06/03 02:41:26;;;;;;;9.60;4.78;;;;;;;;;;4424027;32;20064;-69
2023/06/03 02:43:51;;;;;;;10.10;4.70;;;;;;;;;;4437001;32;20046;-69
2023/06/03 02:46:16;;;;;;;10.20;5.60;;;;;;;;;;4439125;32;20041;-68
2023/06/03 02:48:41;;;;;;;8.35;5.60;;;;;;;;;;4436936;32;20338;-68
2023/06/03 02:51:06;;;;;;;;;;;;;;;;;;4424301;32;20041;-67
2023/06/03 02:53:31;;;;;;;12.37;5.20;;;;;;;;;;4437341;32;19940;-69
2023/06/03 02:55:57;;;;;;;9.13;4.80;;;;;;;;;;4438717;32;20491;-69
2023/06/03 02:58:22;;;;;;;11.18;4.97;;;;;;;;;;4437768;32;20145;-68
2023/06/03 03:00:47;;;;;;;6.90;4.90;;;;;;;;;;4437162;32;20113;-69
2023/06/03 03:03:12;;;;;;;8.25;5.70;;;;;;;;;;4423836;32;20352;-69
2023/06/03 03:05:38;;;;;;;;;;;;;;;;;;4438683;32;20079;-69
2023/06/03 03:08:03;;;;;;;11.07;5.72;;;;;;;;;;4436105;32;20286;-69
2023/06/03 03:10:29;;;;;;;8.70;4.97;;;;;;;;;;4422661;32;20077;-69
2023/06/03 03:12:54;;;;;;;8.32;5.68;;;;;;;;;;4436158;32;20042;-69
2023/06/03 03:15:19;;;;;;;8.07;4.72;;;;;;;;;;4423676;32;20376;-70
2023/06/03 03:17:45;;;;;;;9.48;4.87;;;;;;;;;;4438248;32;20410;-69
2023/06/03 03:20:11;;;;;;;8.55;5.57;;;;;;;;;;4438194;32;20034;-68
2023/06/03 03:22:39;;;;;;;10.73;5.20;;;;;;;;;;4436431;32;20096;-68
2023/06/03 03:25:05;;;;;;;8.55;4.82;;;;;;;;;;4436438;32;20025;-69
2023/06/03 03:27:30;;;;;;;6.93;4.55;;;;;;;;;;4437273;32;20099;-69
2023/06/03 03:29:57;;;;;;;10.27;5.35;;;;;;;;;;4422880;32;20038;-68
2023/06/03 03:32:23;;;;;;;11.65;4.65;;;;;;;;;;4423751;32;20093;-68
2023/06/03 03:35:02;;;;;;;9.13;5.40;;;;;;;;;;4437928;32;20076;-68
2023/06/03 03:37:28;;;;;;;8.48;5.30;;;;;;;;;;4423998;32;20097;-67
2023/06/03 03:39:53;;;;;;;12.55;5.05;;;;;;;;;;4435728;32;20461;-68
2023/06/03 03:42:18;;;;;;;7.12;5.00;;;;;;;;;;4434974;32;20089;-69
2023/06/03 03:44:43;;;;;;;7.12;4.68;;;;;;;;;;4436478;32;20052;-69
2023/06/03 03:47:08;;;;;;;12.13;6.37;;;;;;;;;;4435447;32;20434;-68
2023/06/03 03:49:34;;;;;;;10.48;5.20;;;;;;;;;;4435118;32;20065;-68
2023/06/03 03:52:03;;;;;;;8.02;4.75;;;;;;;;;;4436441;32;20042;-69
2023/06/03 03:54:28;;;;;;;9.43;5.35;;;;;;;;;;4436624;32;20350;-69
2023/06/03 03:56:54;;;;;;;9.45;5.05;;;;;;;;;;4435584;32;20031;-68
2023/06/03 03:59:19;;;;;;;6.53;4.87;;;;;;;;;;4436580;32;20064;-68
2023/06/03 04:01:45;;;;;;;6.70;4.72;;;;;;;;;;4421681;32;20064;-69
2023/06/03 04:04:10;;;;;;;8.65;5.00;;;;;;;;;;4435514;32;20379;-69
2023/06/03 04:06:37;;;;;;;10.65;5.32;;;;;;;;;;4437061;32;20362;-68
2023/06/03 04:09:06;;;;;;;7.82;4.65;;;;;;;;;;4437587;32;20029;-69
2023/06/03 04:11:38;;;;;;;8.50;5.03;;;;;;;;;;4421037;32;20042;-68
2023/06/03 04:14:05;;;;;;;12.50;5.25;;;;;;;;;;4423877;32;20038;-69
2023/06/03 04:16:41;;;;;;;9.55;5.20;;;;;;;;;;4435583;32;20502;-69
2023/06/03 04:19:11;;;;;;;6.03;4.40;;;;;;;;;;4435545;32;20333;-69
2023/06/03 04:21:37;;;;;;;7.25;4.57;;;;;;;;;;4435778;32;20029;-68
2023/06/03 04:24:04;;;;;;;9.65;4.80;;;;;;;;;;4436829;32;20033;-69
2023/06/03 04:26:29;;;;;;;9.60;5.20;;;;;;;;;;4437388;32;20088;-69
2023/06/03 04:28:54;;;;;;;10.27;4.35;;;;;;;;;;4436078;32;20082;-69
2023/06/03 04:31:19;;;;;;;9.20;4.95;;;;;;;;;;4436068;32;20399;-68
2023/06/03 04:33:45;;;;;;;;;;;;;;;;;;4436444;32;20347;-67
2023/06/03 04:36:10;;;;;;;9.13;4.37;;;;;;;;;;4437168;32;19932;-67
2023/06/03 04:38:35;;;;;;;6.70;4.25;;;;;;;;;;4436159;32;20029;-68
2023/06/03 04:41:01;;;;;;;7.82;4.40;;;;;;;;;;4435913;32;20056;-67
2023/06/03 04:43:27;;;;;;;7.68;4.45;;;;;;;;;;4435642;32;20038;-67
2023/06/03 04:45:54;;;;;;;7.70;4.03;;;;;;;;;;4435598;32;20079;-68
2023/06/03 04:48:22;;;;;;;8.10;4.30;;;;;;;;;;4435755;32;20409;-68
2023/06/03 04:50:47;;;;;;;9.52;4.20;;;;;;;;;;4436985;32;20068;-68
2023/06/03 04:53:12;;;;;;;7.37;4.07;;;;;;;;;;4435112;32;20054;-70
2023/06/03 04:55:42;;;;;;;9.90;4.32;;;;;;;;;;4435465;32;20438;-68
2023/06/03 04:58:07;;;;;;;8.77;4.50;;;;;;;;;;4436670;32;20445;-69
2023/06/03 05:00:33;;;;;;;5.90;4.18;;;;;;;;;;4436967;32;20038;-69
2023/06/03 05:02:59;;;;;;;6.57;4.78;;;;;;;;;;4436664;32;20114;-68
2023/06/03 05:05:24;;;;;;;;;;;;;;;;;;4437593;32;20033;-67
2023/06/03 05:07:51;;;;;;;7.60;4.37;;;;;;;;;;4435350;32;19947;-69
2023/06/03 05:10:16;;;;;;;10.68;4.43;;;;;;;;;;4437186;32;20060;-68
2023/06/03 05:12:41;;;;;;;10.25;4.30;;;;;;;;;;4435482;32;20033;-67
2023/06/03 05:15:07;;;;;;;7.32;4.55;;;;;;;;;;4436856;32;20030;-67
2023/06/03 05:17:32;;;;;;;10.48;4.43;;;;;;;;;;4437038;32;20033;-68
2023/06/03 05:19:58;;;;;;;7.87;4.00;;;;;;;;;;4436230;32;20135;-68
2023/06/03 05:22:23;;;;;;;;;;;;;;;;;;4421332;32;20046;-68
2023/06/03 05:24:48;;;;;;;14.63;3.97;;;;;;;;;;4434789;32;19994;-68
2023/06/03 05:27:13;;;;;;;7.62;4.07;;;;;;;;;;4421607;32;20445;-67
2023/06/03 05:29:39;;;;;;;;;;;;;;;;;;4435820;32;20125;-69
2023/06/03 05:32:04;;;;;;;8.70;4.07;;;;;;;;;;4421224;32;19940;-67
2023/06/03 05:34:29;;;;;;;6.15;3.95;;;;;;;;;;4436349;32;20091;-67
2023/06/03 05:36:54;;;;;;;10.02;3.97;;;;;;;;;;4442066;32;20056;-67
2023/06/03 05:39:20;;;;;;;8.40;3.80;;;;;;;;;;4436146;32;20029;-67
2023/06/03 05:41:45;;;;;;;6.55;3.70;;;;;;;;;;4447169;32;20193;-67
2023/06/03 05:44:10;;;;;;;7.53;3.40;;;;;;;;;;4450959;32;20380;-68
2023/06/03 05:46:35;;;;;;;12.73;4.55;;;;;;;;;;4450701;32;20456;-68
2023/06/03 05:49:00;;;;;;;6.53;3.08;;;;;;;;;;4450920;32;20056;-69
2023/06/03 05:51:26;;;;;;;6.03;3.55;;;;;;;;;;4451756;32;20055;-68
2023/06/03 05:53:51;;;;;;;7.75;3.75;;;;;;;;;;4450589;32;20026;-67
2023/06/03 05:56:16;;;;;;;6.43;4.28;;;;;;;;;;4452467;32;20052;-68
2023/06/03 05:58:43;;;;;;;6.75;2.85;;;;;;;;;;4436190;32;20081;-67
2023/06/03 06:01:08;;;;;;;7.22;3.05;;;;;;;;;;4450405;32;20029;-68
2023/06/03 06:03:33;;;;;;;7.43;3.30;;;;;;;;;;4451870;32;20067;-68
2023/06/03 06:06:00;;;;;;;4.53;3.28;;;;;;;;;;4451481;32;20152;-69
2023/06/03 06:08:26;;;;;;;6.57;3.65;;;;;;;;;;4449925;32;20041;-71
2023/06/03 06:10:51;;;;;;;16.80;10.55;;;;;;;;;;4450647;32;20098;-69
2023/06/03 06:13:16;;;;;;;5.85;3.20;;;;;;;;;;4451726;32;20078;-67
2023/06/03 06:15:56;;;;;;;4.20;3.40;;;;;;;;;;4453316;32;20022;-68
2023/06/03 06:18:24;;;;;;;8.65;3.28;;;;;;;;;;4454793;32;20030;-68
2023/06/03 06:20:49;;;;;;;7.93;3.10;;;;;;;;;;4453317;32;20091;-68
2023/06/03 06:23:15;;;;;;;6.55;3.05;;;;;;;;;;4454333;32;20038;-69
2023/06/03 06:25:40;;;;;;;5.75;3.10;;;;;;;;;;4454717;32;20041;-68
2023/06/03 06:28:05;;;;;;;3.65;2.55;;;;;;;;;;4438180;32;20049;-67
2023/06/03 06:30:31;;;;;;;6.22;3.15;;;;;;;;;;4454246;32;20457;-68
2023/06/03 06:32:56;;;;;;;6.95;2.80;;;;;;;;;;4452076;32;20431;-69
2023/06/03 06:35:22;;;;;;;5.28;2.70;;;;;;;;;;4445978;32;20056;-69
2023/06/03 06:37:48;;;;;;;6.97;3.42;;;;;;;;;;4438769;32;20080;-69
2023/06/03 06:40:19;;;;;;;13.75;3.08;;;;;;;;;;4438413;32;20336;-68
2023/06/03 06:42:45;;;;;;;4.78;2.42;;;;;;;;;;4452930;32;20347;-67
2023/06/03 06:45:25;;;;;;;5.87;2.70;;;;;;;;;;4438481;32;20078;-68
2023/06/03 06:47:52;;;;;;;6.75;2.72;;;;;;;;;;4450954;32;20045;-68
2023/06/03 06:50:36;;;;;;;4.32;2.65;;;;;;;;;;4451971;32;20025;-67
2023/06/03 06:53:01;;;;;;;7.03;2.90;;;;;;;;;;4452103;32;20045;-67
2023/06/03 06:55:45;;;;;;;7.82;3.33;;;;;;;;;;4438083;32;20026;-68
2023/06/03 06:58:11;;;;;;;5.80;2.45;;;;;;;;;;4454527;32;20064;-67
2023/06/03 07:00:36;;;;;;;5.00;2.78;;;;;;;;;;4444374;32;20073;-68
2023/06/03 07:03:02;;;;;;;4.82;2.28;;;;;;;;;;4450523;32;20320;-69
2023/06/03 07:05:27;;;;;;;5.32;2.75;;;;;;;;;;4452769;32;20038;-68
2023/06/03 07:07:52;;;;;;;6.40;3.08;;;;;;;;;;4438700;32;20338;-69
2023/06/03 07:10:21;;;;;;;8.48;2.80;;;;;;;;;;4452852;32;20040;-68
2023/06/03 07:12:46;;;;;;;4.82;2.50;;;;;;;;;;4439728;32;20085;-68
2023/06/03 07:15:12;;;;;;;4.78;2.28;;;;;;;;;;4452897;32;20037;-68
2023/06/03 07:17:38;;;;;;;6.40;2.53;;;;;;;;;;4452519;32;20025;-69
2023/06/03 07:20:07;;;;;;;4.85;2.65;;;;;;;;;;4453291;32;20356;-68
2023/06/03 07:22:32;;;;;;;5.22;2.20;;;;;;;;;;4451585;32;20030;-67
2023/06/03 07:24:57;;;;;;;6.82;2.92;;;;;;;;;;4448462;32;20055;-68
2023/06/03 07:27:31;;;;;;;4.87;2.58;;;;;;;;;;4437963;32;20033;-68
2023/06/03 07:29:57;;;;;;;3.40;2.50;;;;;;;;;;4437752;32;20180;-67
2023/06/03 07:32:24;;;;;;;4.97;2.72;;;;;;;;;;4453801;32;20026;-68
2023/06/03 07:34:49;;;;;;;8.48;2.40;;;;;;;;;;4451793;32;20061;-69
2023/06/03 07:37:14;;;;;;;7.37;2.83;;;;;;;;;;4438288;32;20442;-68
2023/06/03 07:39:41;;;;;;;9.93;2.42;;;;;;;;;;4451754;32;20052;-68
2023/06/03 07:42:15;;;;;;;5.43;2.40;;;;;;;;;;4437549;32;20055;-68
2023/06/03 07:44:41;;;;;;;5.00;2.25;;;;;;;;;;4453797;32;20061;-68
2023/06/03 07:47:07;;;;;;;14.30;3.05;;;;;;;;;;4451641;32;20105;-68
2023/06/03 07:49:32;;;;;;;14.32;2.45;;;;;;;;;;4452192;32;20033;-68
2023/06/03 07:51:57;;;;;;;3.28;2.17;;;;;;;;;;4451905;32;20053;-68
2023/06/03 07:54:23;;;;;;;5.07;1.92;;;;;;;;;;4453619;32;20055;-69
2023/06/03 07:56:48;;;;;;;5.35;2.45;;;;;;;;;;4453324;32;20037;-67
2023/06/03 07:59:14;;;;;;;3.40;2.47;;;;;;;;;;4451441;32;20055;-67
2023/06/03 08:01:40;;;;;;;4.53;1.80;;;;;;;;;;4452072;32;20439;-68
2023/06/03 08:04:24;;;;;;;7.03;2.85;;;;;;;;;;4453064;32;20045;-68
2023/06/03 08:06:52;;;;;;;3.47;2.17;;;;;;;;;;4451375;32;20406;-68
2023/06/03 08:09:28;;;;;;;10.40;5.90;;;;;;;;;;4437931;32;20428;-67
2023/06/03 08:11:54;;;;;;;6.47;2.35;;;;;;;;;;4451425;32;20067;-68
2023/06/03 08:14:20;;;;;;;3.92;2.70;;;;;;;;;;4452143;32;20087;-68
2023/06/03 08:16:45;;;;;;;8.85;2.40;;;;;;;;;;4452859;32;20040;-68
2023/06/03 08:19:11;;;;;;;5.05;2.20;;;;;;;;;;4450606;32;20029;-68
2023/06/03 08:21:37;;;;;;;6.53;2.40;;;;;;;;;;4437673;32;20088;-68
2023/06/03 08:24:03;;;;;;;4.45;1.62;;;;;;;;;;4436875;32;20033;-68
2023/06/03 08:26:28;;;;;;;7.25;2.92;;;;;;;;;;4451717;32;20052;-68
2023/06/03 08:28:53;;;;;;;2.63;1.70;;;;;;;;;;4451531;32;20174;-68
2023/06/03 08:31:18;;;;;;;6.28;2.17;;;;;;;;;;4452376;32;20163;-68
2023/06/03 08:33:43;;;;;;;3.83;2.03;;;;;;;;;;4452019;32;20025;-68
2023/06/03 08:36:08;;;;;;;3.83;2.05;;;;;;;;;;4451639;32;20079;-68
2023/06/03 08:38:34;;;;;;;5.82;1.80;;;;;;;;;;4452211;32;20093;-68
2023/06/03 08:40:59;;;;;;;3.72;2.37;;;;;;;;;;4437062;32;20147;-67
2023/06/03 08:43:27;;;;;;;4.30;2.08;;;;;;;;;;4452518;32;20063;-68
2023/06/03 08:45:54;;;;;;;3.45;2.25;;;;;;;;;;4452761;32;20335;-69
2023/06/03 08:48:36;;;;;;;5.80;1.77;;;;;;;;;;4451451;32;20452;-69
2023/06/03 08:51:04;;;;;;;2.80;1.73;;;;;;;;;;4452443;32;20025;-68
2023/06/03 08:53:38;;;;;;;4.55;1.95;;;;;;;;;;4450692;32;20084;-69
2023/06/03 08:56:03;;;;;;;7.72;2.75;;;;;;;;;;4450751;32;20025;-68
2023/06/03 08:58:32;;;;;;;8.07;2.10;;;;;;;;;;4452094;32;20087;-68
2023/06/03 09:01:00;;;;;;;7.00;2.40;;;;;;;;;;4437521;32;20059;-67
2023/06/03 09:03:26;;;;;;;3.30;1.75;;;;;;;;;;4452314;32;20034;-68
2023/06/03 09:05:52;;;;;;;3.17;2.10;;;;;;;;;;4451932;32;20021;-68
2023/06/03 09:08:18;;;;;;;4.50;2.33;;;;;;;;;;4452030;32;20029;-68
2023/06/03 09:10:47;;;;;;;12.23;2.12;;;;;;;;;;4451567;32;20025;-68
2023/06/03 09:13:14;;;;;;;3.58;1.92;;;;;;;;;;4451330;32;20459;-68
2023/06/03 09:15:41;;;;;;;8.82;2.83;;;;;;;;;;4450972;32;20082;-69
2023/06/03 09:18:06;;;;;;;4.93;1.70;;;;;;;;;;4451373;32;20083;-68
2023/06/03 09:20:31;;;;;;;3.72;2.12;;;;;;;;;;4451138;32;20044;-68
2023/06/03 09:22:56;;;;;;;3.70;2.20;;;;;;;;;;4450757;32;20391;-68
2023/06/03 09:25:21;;;;;;;4.72;1.95;;;;;;;;;;4450372;32;20022;-66
2023/06/03 09:27:47;;;;;;;6.40;2.40;;;;;;;;;;4452242;32;20056;-68
2023/06/03 09:30:12;;;;;;;6.53;2.05;;;;;;;;;;4451847;32;20431;-68
2023/06/03 09:32:37;;;;;;;4.22;2.33;;;;;;;;;;4450025;32;20056;-68
2023/06/03 09:35:04;;;;;;;9.05;2.47;;;;;;;;;;4450564;32;20093;-68
2023/06/03 09:37:30;;;;;;;8.00;2.10;;;;;;;;;;4445907;32;20107;-68
2023/06/03 09:39:55;;;;;;;5.22;1.80;;;;;;;;;;4434344;32;20133;-68
2023/06/03 09:42:20;;;;;;;4.93;1.95;;;;;;;;;;4434728;32;20427;-69
2023/06/03 09:44:55;;;;;;;4.07;2.22;;;;;;;;;;4436419;32;20022;-70
2023/06/03 09:47:20;;;;;;;3.55;1.80;;;;;;;;;;4436448;32;20033;-69
2023/06/03 09:50:00;;;;;;;7.85;1.90;;;;;;;;;;4439779;32;20109;-69
2023/06/03 09:52:32;;;;;;;3.95;1.80;;;;;;;;;;4437674;32;20063;-68
2023/06/03 09:55:01;;;;;;;5.18;1.90;;;;;;;;;;4438461;32;20030;-67
2023/06/03 09:57:27;;;;;;;7.18;1.77;;;;;;;;;;4437741;32;20442;-68
2023/06/03 10:00:02;;;;;;;7.82;1.75;;;;;;;;;;4438471;32;20089;-68
2023/06/03 10:02:27;;;;;;;5.00;1.85;;;;;;;;;;4437237;32;20029;-68
2023/06/03 10:04:52;;;;;;;5.78;1.87;;;;;;;;;;4438399;32;20131;-69
2023/06/03 10:07:17;;;;;;;5.07;1.60;;;;;;;;;;4437800;32;20065;-70
2023/06/03 10:09:44;;;;;;;4.87;1.98;;;;;;;;;;4436374;32;20200;-69
2023/06/03 10:12:10;;;;;;;10.77;2.17;;;;;;;;;;4437632;32;20528;-69
2023/06/03 10:14:43;;;;;;;3.03;1.52;;;;;;;;;;4437500;32;20026;-68
2023/06/03 10:17:09;;;;;;;3.67;1.83;;;;;;;;;;4438096;32;20128;-69
2023/06/03 10:19:36;;;;;;;4.35;1.52;;;;;;;;;;4451297;32;20036;-68
2023/06/03 10:22:02;;;;;;;2.65;1.58;;;;;;;;;;4452966;32;20374;-69
2023/06/03 10:24:28;;;;;;;3.10;1.67;;;;;;;;;;4454139;32;20033;-68
2023/06/03 10:26:54;;;;;;;3.22;1.77;;;;;;;;;;4452345;32;20120;-68
2023/06/03 10:29:20;;;;;;;4.10;1.40;;;;;;;;;;4452455;32;20501;-68
2023/06/03 10:31:45;;;;;;;6.18;1.87;;;;;;;;;;4452995;32;20063;-68
2023/06/03 10:34:14;;;;;;;3.87;1.70;;;;;;;;;;4450570;32;20097;-68
2023/06/03 10:36:40;;;;;;;5.18;1.60;;;;;;;;;;4437250;32;20110;-69
2023/06/03 10:39:08;;;;;;;7.72;1.90;;;;;;;;;;4438367;32;20064;-70
2023/06/03 10:41:35;;;;;;;4.55;1.85;;;;;;;;;;4438971;32;20034;-70
2023/06/03 10:44:00;;;;;;;3.85;1.67;;;;;;;;;;4438111;32;20080;-69
2023/06/03 10:46:25;;;;;;;7.03;1.90;;;;;;;;;;4437039;32;20441;-70
2023/06/03 10:48:51;;;;;;;6.43;2.20;;;;;;;;;;4437725;32;20052;-69
2023/06/03 10:51:36;;;;;;;2.75;1.60;;;;;;;;;;4437785;32;20379;-70
2023/06/03 10:54:22;;;;;;;4.22;1.87;;;;;;;;;;4437522;32;20048;-69
2023/06/03 10:56:53;;;;;;;4.03;1.70;;;;;;;;;;4437637;32;20048;-70
2023/06/03 10:59:20;;;;;;;5.53;1.90;;;;;;;;;;4436477;32;20114;-70
2023/06/03 11:02:02;;;;;;;5.80;1.50;;;;;;;;;;4438333;32;20085;-70
2023/06/03 11:04:28;;;;;;;2.55;1.80;;;;;;;;;;4436913;32;20420;-69
2023/06/03 11:06:54;;;;;;;3.83;1.50;;;;;;;;;;4437191;32;20037;-71
2023/06/03 11:09:38;;;;;;;2.08;1.42;;;;;;;;;;4436716;32;20018;-70
2023/06/03 11:12:06;;;;;;;7.70;1.85;;;;;;;;;;4438069;32;20021;-70
2023/06/03 11:14:34;;;;;;;6.53;1.85;;;;;;;;;;4437092;32;20017;-70
2023/06/03 11:16:59;;;;;;;9.65;1.98;;;;;;;;;;4451677;32;20021;-70
2023/06/03 11:19:30;;;;;;;5.30;1.75;;;;;;;;;;4440870;32;20347;-69
2023/06/03 11:21:56;;;;;;;6.47;1.85;;;;;;;;;;4435836;32;20340;-70
2023/06/03 11:24:43;;;;;;;2.72;1.73;;;;;;;;;;4442085;32;20052;-70
2023/06/03 11:27:14;;;;;;;2.20;1.55;;;;;;;;;;4435813;32;20045;-70
2023/06/03 11:29:48;;;;;;;3.83;1.77;;;;;;;;;;4435970;32;20090;-70
2023/06/03 11:32:14;;;;;;;2.17;1.23;;;;;;;;;;4436954;32;20078;-69
2023/06/03 11:34:40;;;;;;;4.55;1.60;;;;;;;;;;4428521;32;20065;-69
2023/06/03 11:37:05;;;;;;;3.22;1.60;;;;;;;;;;4435513;32;20056;-70
2023/06/03 11:39:54;;;;;;;4.50;1.75;;;;;;;;;;4436363;32;20052;-70
2023/06/03 11:42:19;;;;;;;3.75;1.92;;;;;;;;;;4438585;32;20374;-70
2023/06/03 11:44:45;;;;;;;3.17;1.80;;;;;;;;;;4446095;32;20095;-69
2023/06/03 11:47:10;;;;;;;3.12;1.55;;;;;;;;;;4449118;32;20083;-70
2023/06/03 11:49:36;;;;;;;7.47;1.90;;;;;;;;;;4451905;32;20021;-70
2023/06/03 11:52:02;;;;;;;3.78;1.62;;;;;;;;;;4425099;32;20051;-70
2023/06/03 11:54:27;;;;;;;2.03;1.30;;;;;;;;;;4453521;32;20025;-71
2023/06/03 11:56:54;;;;;;;3.55;1.50;;;;;;;;;;4453002;32;20017;-70
2023/06/03 11:59:21;;;;;;;6.65;1.73;;;;;;;;;;4448767;32;20454;-70
2023/06/03 12:02:02;;;;;;;6.75;1.87;;;;;;;;;;4446184;32;20029;-70
2023/06/03 12:04:28;;;;;;;6.85;1.62;;;;;;;;;;4451945;32;20021;-68
2023/06/03 12:06:53;;;;;;;8.88;1.90;;;;;;;;;;4444266;32;20044;-69
2023/06/03 12:09:19;;;;;;;5.07;1.65;;;;;;;;;;4451491;32;20046;-69
2023/06/03 12:11:45;;;;;;;7.68;1.95;;;;;;;;;;4436276;32;20017;-68
2023/06/03 12:14:11;;;;;;;2.95;1.40;;;;;;;;;;4446860;32;20093;-70
2023/06/03 12:16:36;;;;;;;5.57;1.50;;;;;;;;;;4444373;32;20033;-69
2023/06/03 12:19:06;;;;;;;4.05;1.67;;;;;;;;;;4443400;32;20045;-69
2023/06/03 12:21:32;;;;;;;3.87;1.40;;;;;;;;;;4436726;32;20131;-69
2023/06/03 12:23:57;;;;;;;2.15;1.27;;;;;;;;;;4450501;32;20130;-69
2023/06/03 12:26:25;;;;;;;3.33;1.27;;;;;;;;;;4438561;32;20021;-70
2023/06/03 12:28:50;;;;;;;5.35;1.73;;;;;;;;;;4435410;32;20117;-69
2023/06/03 12:31:16;;;;;;;3.42;1.55;;;;;;;;;;4435331;32;20017;-69
2023/06/03 12:33:43;;;;;;;1.80;1.42;;;;;;;;;;4435682;32;20498;-70
2023/06/03 12:36:09;;;;;;;2.42;1.30;;;;;;;;;;4436389;32;20067;-69
2023/06/03 12:38:51;;;;;;;2.92;1.40;;;;;;;;;;4450779;32;20043;-69
2023/06/03 12:41:16;;;;;;;3.10;1.20;;;;;;;;;;4451450;32;20402;-68
2023/06/03 12:43:41;;;;;;;3.60;1.50;;;;;;;;;;4452469;32;20142;-70
2023/06/03 12:46:19;;;;;;;3.07;1.60;;;;;;;;;;4451411;32;20109;-70
2023/06/03 12:48:44;;;;;;;6.80;1.30;;;;;;;;;;4451221;32;20120;-69
2023/06/03 12:51:31;;;;;;;4.85;1.65;;;;;;;;;;4437097;32;20419;-69
2023/06/03 12:53:57;;;;;;;3.25;1.27;;;;;;;;;;4438362;32;20112;-69
2023/06/03 12:56:25;;;;;;;2.60;1.40;;;;;;;;;;4441540;32;20030;-69
2023/06/03 12:58:51;;;;;;;3.67;1.45;;;;;;;;;;4446161;32;20029;-69
2023/06/03 13:01:17;;;;;;;3.53;1.70;;;;;;;;;;4450405;32;20025;-68
2023/06/03 13:03:42;;;;;;;1.80;1.50;;;;;;;;;;4435585;32;20146;-69
2023/06/03 13:06:07;;;;;;;3.12;1.40;;;;;;;;;;4451547;32;20094;-69
2023/06/03 13:08:32;;;;;;;2.42;1.20;;;;;;;;;;4436507;32;20463;-69
2023/06/03 13:10:57;;;;;;;3.07;1.60;;;;;;;;;;4448152;32;20399;-69
2023/06/03 13:13:23;;;;;;;2.67;1.20;;;;;;;;;;4437994;32;20125;-68
2023/06/03 13:15:48;;;;;;;3.25;1.25;;;;;;;;;;4444010;32;20029;-69
2023/06/03 13:18:13;;;;;;;3.33;1.30;;;;;;;;;;4435270;32;20128;-69
2023/06/03 13:20:38;;;;;;;3.05;1.20;;;;;;;;;;4436991;32;20185;-70
2023/06/03 13:23:04;;;;;;;4.10;1.40;;;;;;;;;;4438569;32;20038;-70
2023/06/03 13:25:29;;;;;;;3.90;1.48;;;;;;;;;;4441588;32;20111;-69
2023/06/03 13:27:54;;;;;;;2.47;1.33;;;;;;;;;;4444416;32;20374;-67
2023/06/03 13:30:20;;;;;;;3.53;1.20;;;;;;;;;;4439299;32;20453;-69
2023/06/03 13:32:45;;;;;;;5.35;1.20;;;;;;;;;;4452340;32;20029;-68
2023/06/03 13:35:10;;;;;;;2.65;1.15;;;;;;;;;;4455045;32;20029;-70
2023/06/03 13:37:36;;;;;;;1.85;1.17;;;;;;;;;;4429517;32;20565;-68
2023/06/03 13:40:02;;;;;;;3.45;1.15;;;;;;;;;;4442133;32;20037;-68
2023/06/03 13:42:27;;;;;;;2.67;1.33;;;;;;;;;;4441463;32;20486;-68
2023/06/03 13:44:53;;;;;;;4.65;1.25;;;;;;;;;;4440136;32;20354;-69
2023/06/03 13:47:18;;;;;;;1.23;1.13;;;;;;;;;;4434371;32;20427;-69
2023/06/03 13:49:43;;;;;;;6.03;1.60;;;;;;;;;;4425372;32;20125;-69
2023/06/03 13:52:08;;;;;;;2.85;1.60;;;;;;;;;;4437674;32;20090;-68
2023/06/03 13:54:33;;;;;;;1.93;1.00;;;;;;;;;;4437806;32;20448;-69
2023/06/03 13:57:01;;;;;;;3.90;1.40;;;;;;;;;;4429791;32;20281;-69
2023/06/03 13:59:26;;;;;;;3.22;1.20;;;;;;;;;;4451227;32;20037;-69
2023/06/03 14:01:51;;;;;;;2.37;1.17;;;;;;;;;;4449964;32;20121;-70
2023/06/03 14:04:17;;;;;;;3.70;1.20;;;;;;;;;;4444036;32;20064;-69
2023/06/03 14:06:42;;;;;;;4.32;1.00;;;;;;;;;;4442312;32;20025;-69
2023/06/03 14:09:07;;;;;;;8.27;1.48;;;;;;;;;;4454209;32;20056;-69
2023/06/03 14:11:32;;;;;;;5.68;1.10;;;;;;;;;;4451788;32;20151;-69
2023/06/03 14:13:57;;;;;;;2.40;1.20;;;;;;;;;;4446392;32;20025;-69
2023/06/03 14:16:26;;;;;;;3.12;1.30;;;;;;;;;;4454566;32;20155;-69
2023/06/03 14:18:51;;;;;;;2.67;1.25;;;;;;;;;;4453553;32;20079;-69
2023/06/03 14:21:16;;;;;;;2.95;1.90;;;;;;;;;;4448532;32;20508;-69
2023/06/03 14:23:41;;;;;;;6.72;1.30;;;;;;;;;;4444399;32;20323;-71
2023/06/03 14:26:07;;;;;;;2.57;1.30;;;;;;;;;;4453393;32;20052;-69
2023/06/03 14:28:32;;;;;;;1.73;1.33;;;;;;;;;;4454148;32;20144;-70
2023/06/03 14:30:57;;;;;;;3.43;1.03;;;;;;;;;;4452756;32;20150;-70
2023/06/03 14:33:25;;;;;;;2.15;1.05;;;;;;;;;;4446002;32;20124;-69
2023/06/03 14:35:50;;;;;;;1.55;1.30;;;;;;;;;;4437378;32;20065;-70
2023/06/03 14:38:19;;;;;;;4.23;1.60;;;;;;;;;;4437963;32;20076;-70
2023/06/03 14:40:44;;;;;;;3.72;1.20;;;;;;;;;;4438512;32;20181;-69
2023/06/03 14:43:09;;;;;;;2.07;1.10;;;;;;;;;;4438280;32;20069;-70